sensor_id;sensor_type;location;lat;lon;timestamp;P1;durP1;ratioP1;P2;durP2;ratioP2
58384;SDS011;44185;47.844;8.966;2023-08-07T00:01:41;2.13;;;0.80;;
58384;SDS011;44185;47.844;8.966;2023-08-07T00:04:07;0.98;;;0.88;;
58384;SDS011;44185;47.844;8.966;2023-08-07T00:06:32;1.52;;;0.73;;
58384;SDS011;44185;47.844;8.966;2023-08-07T00:08:58;2.35;;;1.20;;
58384;SDS011;44185;47.844;8.966;2023-08-07T00:11:23;1.27;;;1.17;;
58384;SDS011;44185;47.844;8.966;2023-08-07T00:13:49;2.05;;;1.10;;
58384;SDS011;44185;47.844;8.966;2023-08-07T00:16:14;1.45;;;1.02;;
58384;SDS011;44185;47.844;8.966;2023-08-07T00:18:41;2.53;;;1.35;;
58384;SDS011;44185;47.844;8.966;2023-08-07T00:21:06;4.03;;;1.00;;
58384;SDS011;44185;47.844;8.966;2023-08-07T00:23:32;2.63;;;1.17;;
58384;SDS011;44185;47.844;8.966;2023-08-07T00:25:57;5.65;;;1.17;;
58384;SDS011;44185;47.844;8.966;2023-08-07T00:28:22;4.43;;;1.45;;
58384;SDS011;44185;47.844;8.966;2023-08-07T00:30:48;1.20;;;1.13;;
58384;SDS011;44185;47.844;8.966;2023-08-07T00:33:13;4.57;;;1.60;;
58384;SDS011;44185;47.844;8.966;2023-08-07T00:35:40;1.83;;;1.10;;
58384;SDS011;44185;47.844;8.966;2023-08-07T00:38:05;2.78;;;1.25;;
58384;SDS011;44185;47.844;8.966;2023-08-07T00:40:35;2.78;;;1.50;;
58384;SDS011;44185;47.844;8.966;2023-08-07T00:43:01;2.92;;;1.42;;
58384;SDS011;44185;47.844;8.966;2023-08-07T00:45:27;1.67;;;1.02;;
58384;SDS011;44185;47.844;8.966;2023-08-07T00:47:52;2.70;;;1.48;;
58384;SDS011;44185;47.844;8.966;2023-08-07T00:50:18;3.15;;;1.50;;
58384;SDS011;44185;47.844;8.966;2023-08-07T00:52:45;2.30;;;1.48;;
58384;SDS011;44185;47.844;8.966;2023-08-07T00:55:10;1.73;;;1.10;;
58384;SDS011;44185;47.844;8.966;2023-08-07T00:57:36;1.27;;;1.05;;
58384;SDS011;44185;47.844;8.966;2023-08-07T01:00:02;2.38;;;1.52;;
58384;SDS011;44185;47.844;8.966;2023-08-07T01:02:28;2.22;;;1.50;;
58384;SDS011;44185;47.844;8.966;2023-08-07T01:04:53;2.35;;;1.55;;
58384;SDS011;44185;47.844;8.966;2023-08-07T01:07:19;2.55;;;1.30;;
58384;SDS011;44185;47.844;8.966;2023-08-07T01:09:46;2.05;;;1.50;;
58384;SDS011;44185;47.844;8.966;2023-08-07T01:12:13;2.20;;;1.30;;
58384;SDS011;44185;47.844;8.966;2023-08-07T01:14:42;3.40;;;2.00;;
58384;SDS011;44185;47.844;8.966;2023-08-07T01:17:14;3.92;;;1.13;;
58384;SDS011;44185;47.844;8.966;2023-08-07T01:19:41;2.78;;;1.92;;
58384;SDS011;44185;47.844;8.966;2023-08-07T01:22:08;3.35;;;1.58;;
58384;SDS011;44185;47.844;8.966;2023-08-07T01:24:35;4.15;;;1.90;;
58384;SDS011;44185;47.844;8.966;2023-08-07T01:27:02;3.55;;;1.50;;
58384;SDS011;44185;47.844;8.966;2023-08-07T01:29:36;2.90;;;1.50;;
58384;SDS011;44185;47.844;8.966;2023-08-07T01:32:08;1.60;;;1.50;;
58384;SDS011;44185;47.844;8.966;2023-08-07T01:34:36;2.72;;;1.65;;
58384;SDS011;44185;47.844;8.966;2023-08-07T01:37:06;3.53;;;1.65;;
58384;SDS011;44185;47.844;8.966;2023-08-07T01:39:35;3.58;;;1.38;;
58384;SDS011;44185;47.844;8.966;2023-08-07T01:42:02;3.58;;;1.83;;
58384;SDS011;44185;47.844;8.966;2023-08-07T01:44:29;4.57;;;1.50;;
58384;SDS011;44185;47.844;8.966;2023-08-07T01:46:54;1.38;;;1.17;;
58384;SDS011;44185;47.844;8.966;2023-08-07T01:49:20;1.92;;;1.55;;
58384;SDS011;44185;47.844;8.966;2023-08-07T01:51:45;4.72;;;1.70;;
58384;SDS011;44185;47.844;8.966;2023-08-07T01:54:12;1.60;;;1.35;;
58384;SDS011;44185;47.844;8.966;2023-08-07T01:56:37;1.58;;;1.35;;
58384;SDS011;44185;47.844;8.966;2023-08-07T01:59:03;3.28;;;1.70;;
58384;SDS011;44185;47.844;8.966;2023-08-07T02:01:28;2.35;;;1.55;;
58384;SDS011;44185;47.844;8.966;2023-08-07T02:03:54;2.30;;;1.60;;
58384;SDS011;44185;47.844;8.966;2023-08-07T02:06:19;3.03;;;1.80;;
58384;SDS011;44185;47.844;8.966;2023-08-07T02:08:44;2.78;;;1.40;;
58384;SDS011;44185;47.844;8.966;2023-08-07T02:11:11;2.35;;;1.50;;
58384;SDS011;44185;47.844;8.966;2023-08-07T02:13:37;1.65;;;1.35;;
58384;SDS011;44185;47.844;8.966;2023-08-07T02:16:02;1.45;;;1.20;;
58384;SDS011;44185;47.844;8.966;2023-08-07T02:18:28;1.65;;;1.52;;
58384;SDS011;44185;47.844;8.966;2023-08-07T02:20:53;3.45;;;1.65;;
58384;SDS011;44185;47.844;8.966;2023-08-07T02:23:19;3.08;;;1.52;;
58384;SDS011;44185;47.844;8.966;2023-08-07T02:25:44;4.05;;;1.67;;
58384;SDS011;44185;47.844;8.966;2023-08-07T02:28:11;3.13;;;1.45;;
58384;SDS011;44185;47.844;8.966;2023-08-07T02:30:36;2.58;;;1.75;;
58384;SDS011;44185;47.844;8.966;2023-08-07T02:33:02;2.05;;;1.63;;
58384;SDS011;44185;47.844;8.966;2023-08-07T02:35:28;3.88;;;1.08;;
58384;SDS011;44185;47.844;8.966;2023-08-07T02:37:53;3.50;;;1.90;;
58384;SDS011;44185;47.844;8.966;2023-08-07T02:40:18;3.65;;;1.50;;
58384;SDS011;44185;47.844;8.966;2023-08-07T02:42:44;3.92;;;2.03;;
58384;SDS011;44185;47.844;8.966;2023-08-07T02:45:11;2.42;;;1.48;;
58384;SDS011;44185;47.844;8.966;2023-08-07T02:47:36;2.65;;;1.60;;
58384;SDS011;44185;47.844;8.966;2023-08-07T02:50:02;4.22;;;1.70;;
58384;SDS011;44185;47.844;8.966;2023-08-07T02:52:28;1.63;;;1.17;;
58384;SDS011;44185;47.844;8.966;2023-08-07T02:54:54;4.60;;;1.70;;
58384;SDS011;44185;47.844;8.966;2023-08-07T02:57:19;2.20;;;1.55;;
58384;SDS011;44185;47.844;8.966;2023-08-07T02:59:45;3.38;;;1.88;;
58384;SDS011;44185;47.844;8.966;2023-08-07T03:02:12;1.40;;;1.25;;
58384;SDS011;44185;47.844;8.966;2023-08-07T03:04:37;2.45;;;1.30;;
58384;SDS011;44185;47.844;8.966;2023-08-07T03:07:03;2.70;;;1.60;;
58384;SDS011;44185;47.844;8.966;2023-08-07T03:09:28;3.45;;;1.30;;
58384;SDS011;44185;47.844;8.966;2023-08-07T03:11:54;1.40;;;1.20;;
58384;SDS011;44185;47.844;8.966;2023-08-07T03:14:19;2.45;;;1.48;;
58384;SDS011;44185;47.844;8.966;2023-08-07T03:16:45;2.25;;;1.50;;
58384;SDS011;44185;47.844;8.966;2023-08-07T03:19:11;2.95;;;1.67;;
58384;SDS011;44185;47.844;8.966;2023-08-07T03:21:37;3.63;;;1.70;;
58384;SDS011;44185;47.844;8.966;2023-08-07T03:24:02;2.53;;;1.52;;
58384;SDS011;44185;47.844;8.966;2023-08-07T03:26:28;2.67;;;1.60;;
58384;SDS011;44185;47.844;8.966;2023-08-07T03:28:54;1.65;;;1.15;;
58384;SDS011;44185;47.844;8.966;2023-08-07T03:31:19;1.60;;;1.45;;
58384;SDS011;44185;47.844;8.966;2023-08-07T03:33:44;2.22;;;1.50;;
58384;SDS011;44185;47.844;8.966;2023-08-07T03:36:11;2.25;;;1.45;;
58384;SDS011;44185;47.844;8.966;2023-08-07T03:38:37;3.25;;;1.48;;
58384;SDS011;44185;47.844;8.966;2023-08-07T03:41:02;2.72;;;1.77;;
58384;SDS011;44185;47.844;8.966;2023-08-07T03:43:28;2.73;;;1.63;;
58384;SDS011;44185;47.844;8.966;2023-08-07T03:45:54;1.88;;;1.52;;
58384;SDS011;44185;47.844;8.966;2023-08-07T03:48:19;3.53;;;1.63;;
58384;SDS011;44185;47.844;8.966;2023-08-07T03:50:45;4.00;;;1.60;;
58384;SDS011;44185;47.844;8.966;2023-08-07T03:53:12;2.13;;;1.48;;
58384;SDS011;44185;47.844;8.966;2023-08-07T03:55:37;3.20;;;1.70;;
58384;SDS011;44185;47.844;8.966;2023-08-07T03:58:02;2.15;;;1.83;;
58384;SDS011;44185;47.844;8.966;2023-08-07T04:00:28;2.97;;;1.77;;
58384;SDS011;44185;47.844;8.966;2023-08-07T04:02:53;3.33;;;1.88;;
58384;SDS011;44185;47.844;8.966;2023-08-07T04:05:19;4.72;;;1.65;;
58384;SDS011;44185;47.844;8.966;2023-08-07T04:07:44;3.10;;;1.58;;
58384;SDS011;44185;47.844;8.966;2023-08-07T04:10:11;4.13;;;1.73;;
58384;SDS011;44185;47.844;8.966;2023-08-07T04:12:36;3.35;;;1.80;;
58384;SDS011;44185;47.844;8.966;2023-08-07T04:15:02;2.85;;;1.65;;
58384;SDS011;44185;47.844;8.966;2023-08-07T04:17:28;3.00;;;1.73;;
58384;SDS011;44185;47.844;8.966;2023-08-07T04:19:53;2.53;;;1.92;;
58384;SDS011;44185;47.844;8.966;2023-08-07T04:22:19;2.15;;;1.35;;
58384;SDS011;44185;47.844;8.966;2023-08-07T04:24:44;1.70;;;1.40;;
58384;SDS011;44185;47.844;8.966;2023-08-07T04:27:11;2.53;;;1.65;;
58384;SDS011;44185;47.844;8.966;2023-08-07T04:29:36;2.42;;;1.58;;
58384;SDS011;44185;47.844;8.966;2023-08-07T04:32:02;2.83;;;1.63;;
58384;SDS011;44185;47.844;8.966;2023-08-07T04:34:28;2.92;;;1.70;;
58384;SDS011;44185;47.844;8.966;2023-08-07T04:36:53;3.17;;;1.67;;
58384;SDS011;44185;47.844;8.966;2023-08-07T04:39:20;2.33;;;1.75;;
58384;SDS011;44185;47.844;8.966;2023-08-07T04:41:45;3.58;;;1.83;;
58384;SDS011;44185;47.844;8.966;2023-08-07T04:44:12;4.88;;;2.25;;
58384;SDS011;44185;47.844;8.966;2023-08-07T04:46:38;4.03;;;2.08;;
58384;SDS011;44185;47.844;8.966;2023-08-07T04:49:03;3.17;;;2.03;;
58384;SDS011;44185;47.844;8.966;2023-08-07T04:51:28;3.47;;;1.95;;
58384;SDS011;44185;47.844;8.966;2023-08-07T04:53:54;5.20;;;1.70;;
58384;SDS011;44185;47.844;8.966;2023-08-07T04:56:19;3.10;;;1.95;;
58384;SDS011;44185;47.844;8.966;2023-08-07T04:58:45;5.25;;;2.45;;
58384;SDS011;44185;47.844;8.966;2023-08-07T05:01:11;3.40;;;2.00;;
58384;SDS011;44185;47.844;8.966;2023-08-07T05:03:37;3.92;;;2.20;;
58384;SDS011;44185;47.844;8.966;2023-08-07T05:06:02;3.92;;;1.70;;
58384;SDS011;44185;47.844;8.966;2023-08-07T05:08:28;4.00;;;1.95;;
58384;SDS011;44185;47.844;8.966;2023-08-07T05:10:53;2.15;;;1.80;;
58384;SDS011;44185;47.844;8.966;2023-08-07T05:13:19;2.65;;;1.88;;
58384;SDS011;44185;47.844;8.966;2023-08-07T05:15:46;3.60;;;2.20;;
58384;SDS011;44185;47.844;8.966;2023-08-07T05:18:13;3.50;;;1.90;;
58384;SDS011;44185;47.844;8.966;2023-08-07T05:20:38;4.30;;;2.13;;
58384;SDS011;44185;47.844;8.966;2023-08-07T05:23:04;6.68;;;2.00;;
58384;SDS011;44185;47.844;8.966;2023-08-07T05:25:29;2.50;;;1.90;;
58384;SDS011;44185;47.844;8.966;2023-08-07T05:27:55;3.40;;;2.08;;
58384;SDS011;44185;47.844;8.966;2023-08-07T05:30:20;2.80;;;1.80;;
58384;SDS011;44185;47.844;8.966;2023-08-07T05:32:46;4.60;;;2.10;;
58384;SDS011;44185;47.844;8.966;2023-08-07T05:35:13;5.53;;;2.30;;
58384;SDS011;44185;47.844;8.966;2023-08-07T05:37:38;6.07;;;2.25;;
58384;SDS011;44185;47.844;8.966;2023-08-07T05:40:04;3.42;;;2.45;;
58384;SDS011;44185;47.844;8.966;2023-08-07T05:42:31;3.92;;;1.98;;
58384;SDS011;44185;47.844;8.966;2023-08-07T05:44:56;3.22;;;2.20;;
58384;SDS011;44185;47.844;8.966;2023-08-07T05:47:22;2.03;;;1.88;;
58384;SDS011;44185;47.844;8.966;2023-08-07T05:49:48;2.00;;;1.85;;
58384;SDS011;44185;47.844;8.966;2023-08-07T05:52:15;5.55;;;2.20;;
58384;SDS011;44185;47.844;8.966;2023-08-07T05:54:42;4.27;;;2.37;;
58384;SDS011;44185;47.844;8.966;2023-08-07T05:57:07;4.97;;;2.30;;
58384;SDS011;44185;47.844;8.966;2023-08-07T05:59:33;3.60;;;2.33;;
58384;SDS011;44185;47.844;8.966;2023-08-07T06:01:58;2.38;;;1.92;;
58384;SDS011;44185;47.844;8.966;2023-08-07T06:04:24;2.97;;;2.17;;
58384;SDS011;44185;47.844;8.966;2023-08-07T06:06:49;3.45;;;1.80;;
58384;SDS011;44185;47.844;8.966;2023-08-07T06:09:16;4.22;;;2.17;;
58384;SDS011;44185;47.844;8.966;2023-08-07T06:11:42;2.15;;;1.95;;
58384;SDS011;44185;47.844;8.966;2023-08-07T06:14:07;2.05;;;1.83;;
58384;SDS011;44185;47.844;8.966;2023-08-07T06:16:33;3.45;;;2.25;;
58384;SDS011;44185;47.844;8.966;2023-08-07T06:18:58;2.85;;;2.15;;
58384;SDS011;44185;47.844;8.966;2023-08-07T06:21:23;3.97;;;2.42;;
58384;SDS011;44185;47.844;8.966;2023-08-07T06:23:49;3.95;;;2.10;;
58384;SDS011;44185;47.844;8.966;2023-08-07T06:26:16;2.47;;;2.00;;
58384;SDS011;44185;47.844;8.966;2023-08-07T06:28:42;3.05;;;2.03;;
58384;SDS011;44185;47.844;8.966;2023-08-07T06:31:08;3.65;;;2.10;;
58384;SDS011;44185;47.844;8.966;2023-08-07T06:33:34;3.42;;;2.15;;
58384;SDS011;44185;47.844;8.966;2023-08-07T06:36:00;3.15;;;1.88;;
58384;SDS011;44185;47.844;8.966;2023-08-07T06:38:26;3.63;;;1.88;;
58384;SDS011;44185;47.844;8.966;2023-08-07T06:40:52;3.33;;;1.63;;
58384;SDS011;44185;47.844;8.966;2023-08-07T06:43:19;4.07;;;1.95;;
58384;SDS011;44185;47.844;8.966;2023-08-07T06:45:46;2.55;;;1.50;;
58384;SDS011;44185;47.844;8.966;2023-08-07T06:48:12;1.70;;;1.60;;
58384;SDS011;44185;47.844;8.966;2023-08-07T06:50:37;3.40;;;2.20;;
58384;SDS011;44185;47.844;8.966;2023-08-07T06:53:03;3.33;;;2.25;;
58384;SDS011;44185;47.844;8.966;2023-08-07T06:55:28;3.03;;;2.17;;
58384;SDS011;44185;47.844;8.966;2023-08-07T06:57:54;3.70;;;1.80;;
58384;SDS011;44185;47.844;8.966;2023-08-07T07:00:20;3.85;;;1.80;;
58384;SDS011;44185;47.844;8.966;2023-08-07T07:02:46;3.22;;;1.88;;
58384;SDS011;44185;47.844;8.966;2023-08-07T07:05:11;3.67;;;1.83;;
58384;SDS011;44185;47.844;8.966;2023-08-07T07:07:37;3.00;;;1.90;;
58384;SDS011;44185;47.844;8.966;2023-08-07T07:10:03;3.80;;;1.83;;
58384;SDS011;44185;47.844;8.966;2023-08-07T07:12:29;2.38;;;1.80;;
58384;SDS011;44185;47.844;8.966;2023-08-07T07:14:54;2.20;;;2.00;;
58384;SDS011;44185;47.844;8.966;2023-08-07T07:17:21;2.17;;;1.50;;
58384;SDS011;44185;47.844;8.966;2023-08-07T07:19:46;3.00;;;1.60;;
58384;SDS011;44185;47.844;8.966;2023-08-07T07:22:12;1.90;;;1.77;;
58384;SDS011;44185;47.844;8.966;2023-08-07T07:24:37;2.72;;;2.08;;
58384;SDS011;44185;47.844;8.966;2023-08-07T07:27:03;3.40;;;1.75;;
58384;SDS011;44185;47.844;8.966;2023-08-07T07:29:29;3.88;;;1.80;;
58384;SDS011;44185;47.844;8.966;2023-08-07T07:31:55;4.82;;;1.90;;
58384;SDS011;44185;47.844;8.966;2023-08-07T07:34:22;2.88;;;1.70;;
58384;SDS011;44185;47.844;8.966;2023-08-07T07:36:48;3.90;;;1.63;;
58384;SDS011;44185;47.844;8.966;2023-08-07T07:39:13;2.17;;;1.90;;
58384;SDS011;44185;47.844;8.966;2023-08-07T07:41:39;3.75;;;1.80;;
58384;SDS011;44185;47.844;8.966;2023-08-07T07:44:06;2.70;;;1.73;;
58384;SDS011;44185;47.844;8.966;2023-08-07T07:46:32;2.42;;;1.30;;
58384;SDS011;44185;47.844;8.966;2023-08-07T07:48:58;1.20;;;1.13;;
58384;SDS011;44185;47.844;8.966;2023-08-07T07:51:25;4.10;;;1.60;;
58384;SDS011;44185;47.844;8.966;2023-08-07T07:53:53;4.28;;;1.83;;
58384;SDS011;44185;47.844;8.966;2023-08-07T07:56:19;2.83;;;1.65;;
58384;SDS011;44185;47.844;8.966;2023-08-07T07:58:47;2.63;;;1.42;;
58384;SDS011;44185;47.844;8.966;2023-08-07T08:01:13;2.38;;;1.85;;
58384;SDS011;44185;47.844;8.966;2023-08-07T08:03:38;2.13;;;1.40;;
58384;SDS011;44185;47.844;8.966;2023-08-07T08:06:04;1.83;;;1.50;;
58384;SDS011;44185;47.844;8.966;2023-08-07T08:08:31;1.80;;;1.40;;
58384;SDS011;44185;47.844;8.966;2023-08-07T08:10:56;1.00;;;1.00;;
58384;SDS011;44185;47.844;8.966;2023-08-07T08:13:22;3.40;;;1.48;;
58384;SDS011;44185;47.844;8.966;2023-08-07T08:15:47;2.75;;;1.20;;
58384;SDS011;44185;47.844;8.966;2023-08-07T08:18:13;2.88;;;1.60;;
58384;SDS011;44185;47.844;8.966;2023-08-07T08:20:38;1.20;;;1.15;;
58384;SDS011;44185;47.844;8.966;2023-08-07T08:23:04;3.88;;;1.70;;
58384;SDS011;44185;47.844;8.966;2023-08-07T08:25:31;0.97;;;0.90;;
58384;SDS011;44185;47.844;8.966;2023-08-07T08:27:57;1.50;;;1.30;;
58384;SDS011;44185;47.844;8.966;2023-08-07T08:30:22;2.63;;;1.50;;
58384;SDS011;44185;47.844;8.966;2023-08-07T08:32:48;1.33;;;1.23;;
58384;SDS011;44185;47.844;8.966;2023-08-07T08:35:14;2.17;;;1.27;;
58384;SDS011;44185;47.844;8.966;2023-08-07T08:37:39;0.80;;;0.75;;
58384;SDS011;44185;47.844;8.966;2023-08-07T08:40:05;3.05;;;1.35;;
58384;SDS011;44185;47.844;8.966;2023-08-07T08:42:34;2.70;;;1.52;;
58384;SDS011;44185;47.844;8.966;2023-08-07T08:45:03;2.20;;;1.45;;
58384;SDS011;44185;47.844;8.966;2023-08-07T08:47:30;1.38;;;1.27;;
58384;SDS011;44185;47.844;8.966;2023-08-07T08:50:01;3.13;;;1.58;;
58384;SDS011;44185;47.844;8.966;2023-08-07T08:52:28;3.50;;;1.75;;
58384;SDS011;44185;47.844;8.966;2023-08-07T08:54:54;4.45;;;1.73;;
58384;SDS011;44185;47.844;8.966;2023-08-07T08:57:21;3.03;;;1.83;;
58384;SDS011;44185;47.844;8.966;2023-08-07T08:59:49;2.45;;;1.70;;
58384;SDS011;44185;47.844;8.966;2023-08-07T09:02:15;2.30;;;1.88;;
58384;SDS011;44185;47.844;8.966;2023-08-07T09:04:42;2.15;;;1.60;;
58384;SDS011;44185;47.844;8.966;2023-08-07T09:07:08;1.83;;;1.60;;
58384;SDS011;44185;47.844;8.966;2023-08-07T09:09:34;3.63;;;1.83;;
58384;SDS011;44185;47.844;8.966;2023-08-07T09:12:00;2.10;;;1.30;;
58384;SDS011;44185;47.844;8.966;2023-08-07T09:14:29;1.95;;;1.70;;
58384;SDS011;44185;47.844;8.966;2023-08-07T09:17:00;2.28;;;1.17;;
58384;SDS011;44185;47.844;8.966;2023-08-07T09:19:26;1.77;;;1.25;;
58384;SDS011;44185;47.844;8.966;2023-08-07T09:21:52;1.45;;;1.35;;
58384;SDS011;44185;47.844;8.966;2023-08-07T09:24:18;1.27;;;1.17;;
58384;SDS011;44185;47.844;8.966;2023-08-07T09:26:43;2.88;;;1.42;;
58384;SDS011;44185;47.844;8.966;2023-08-07T09:29:09;1.73;;;1.50;;
58384;SDS011;44185;47.844;8.966;2023-08-07T09:31:36;1.13;;;1.02;;
58384;SDS011;44185;47.844;8.966;2023-08-07T09:34:03;0.93;;;0.90;;
58384;SDS011;44185;47.844;8.966;2023-08-07T09:36:31;1.23;;;1.13;;
58384;SDS011;44185;47.844;8.966;2023-08-07T09:38:58;2.58;;;1.30;;
58384;SDS011;44185;47.844;8.966;2023-08-07T09:41:25;1.50;;;0.93;;
58384;SDS011;44185;47.844;8.966;2023-08-07T09:43:51;1.30;;;1.02;;
58384;SDS011;44185;47.844;8.966;2023-08-07T09:46:17;1.00;;;0.80;;
58384;SDS011;44185;47.844;8.966;2023-08-07T09:48:43;1.20;;;1.10;;
58384;SDS011;44185;47.844;8.966;2023-08-07T09:51:10;1.00;;;0.73;;
58384;SDS011;44185;47.844;8.966;2023-08-07T09:53:36;0.80;;;0.80;;
58384;SDS011;44185;47.844;8.966;2023-08-07T09:56:02;2.15;;;1.23;;
58384;SDS011;44185;47.844;8.966;2023-08-07T09:58:28;1.15;;;0.95;;
58384;SDS011;44185;47.844;8.966;2023-08-07T10:00:54;3.38;;;1.42;;
58384;SDS011;44185;47.844;8.966;2023-08-07T10:03:22;1.33;;;1.15;;
58384;SDS011;44185;47.844;8.966;2023-08-07T10:05:50;1.60;;;1.10;;
58384;SDS011;44185;47.844;8.966;2023-08-07T10:08:17;2.90;;;1.30;;
58384;SDS011;44185;47.844;8.966;2023-08-07T10:10:43;1.38;;;1.25;;
58384;SDS011;44185;47.844;8.966;2023-08-07T10:13:13;1.63;;;1.20;;
58384;SDS011;44185;47.844;8.966;2023-08-07T10:15:39;1.10;;;1.00;;
58384;SDS011;44185;47.844;8.966;2023-08-07T10:18:05;1.25;;;1.15;;
58384;SDS011;44185;47.844;8.966;2023-08-07T10:20:31;1.33;;;1.20;;
58384;SDS011;44185;47.844;8.966;2023-08-07T10:23:07;2.00;;;0.90;;
58384;SDS011;44185;47.844;8.966;2023-08-07T10:25:35;2.25;;;1.50;;
58384;SDS011;44185;47.844;8.966;2023-08-07T10:28:05;1.67;;;1.17;;
58384;SDS011;44185;47.844;8.966;2023-08-07T10:30:33;1.02;;;1.00;;
58384;SDS011;44185;47.844;8.966;2023-08-07T10:33:03;1.10;;;0.98;;
58384;SDS011;44185;47.844;8.966;2023-08-07T10:35:32;0.60;;;0.60;;
58384;SDS011;44185;47.844;8.966;2023-08-07T10:38:04;1.92;;;0.80;;
58384;SDS011;44185;47.844;8.966;2023-08-07T10:40:31;0.80;;;0.80;;
58384;SDS011;44185;47.844;8.966;2023-08-07T10:42:58;1.65;;;0.80;;
58384;SDS011;44185;47.844;8.966;2023-08-07T10:45:28;1.80;;;1.45;;
58384;SDS011;44185;47.844;8.966;2023-08-07T10:48:02;1.55;;;1.27;;
58384;SDS011;44185;47.844;8.966;2023-08-07T10:50:31;3.35;;;1.42;;
58384;SDS011;44185;47.844;8.966;2023-08-07T10:52:59;3.22;;;1.50;;
58384;SDS011;44185;47.844;8.966;2023-08-07T10:55:25;2.30;;;1.50;;
58384;SDS011;44185;47.844;8.966;2023-08-07T10:57:55;1.95;;;1.75;;
58384;SDS011;44185;47.844;8.966;2023-08-07T11:00:23;2.50;;;1.55;;
58384;SDS011;44185;47.844;8.966;2023-08-07T11:02:51;1.92;;;1.30;;
58384;SDS011;44185;47.844;8.966;2023-08-07T11:05:17;1.73;;;1.52;;
58384;SDS011;44185;47.844;8.966;2023-08-07T11:07:43;1.98;;;1.60;;
58384;SDS011;44185;47.844;8.966;2023-08-07T11:10:09;1.35;;;1.25;;
58384;SDS011;44185;47.844;8.966;2023-08-07T11:12:38;1.90;;;1.13;;
58384;SDS011;44185;47.844;8.966;2023-08-07T11:15:04;1.92;;;1.30;;
58384;SDS011;44185;47.844;8.966;2023-08-07T11:17:31;1.55;;;1.10;;
58384;SDS011;44185;47.844;8.966;2023-08-07T11:19:57;2.40;;;1.00;;
58384;SDS011;44185;47.844;8.966;2023-08-07T11:22:22;2.20;;;0.98;;
58384;SDS011;44185;47.844;8.966;2023-08-07T11:24:48;1.10;;;0.80;;
58384;SDS011;44185;47.844;8.966;2023-08-07T11:27:15;1.08;;;0.60;;
58384;SDS011;44185;47.844;8.966;2023-08-07T11:29:40;2.47;;;1.40;;
58384;SDS011;44185;47.844;8.966;2023-08-07T11:32:06;1.40;;;1.08;;
58384;SDS011;44185;47.844;8.966;2023-08-07T11:34:34;1.77;;;1.20;;
58384;SDS011;44185;47.844;8.966;2023-08-07T11:37:00;1.52;;;1.20;;
58384;SDS011;44185;47.844;8.966;2023-08-07T11:39:25;1.17;;;1.08;;
58384;SDS011;44185;47.844;8.966;2023-08-07T11:41:50;0.95;;;0.95;;
58384;SDS011;44185;47.844;8.966;2023-08-07T11:44:16;1.55;;;1.10;;
58384;SDS011;44185;47.844;8.966;2023-08-07T11:46:41;1.38;;;1.02;;
58384;SDS011;44185;47.844;8.966;2023-08-07T11:49:08;1.55;;;1.20;;
58384;SDS011;44185;47.844;8.966;2023-08-07T11:51:35;1.00;;;0.90;;
58384;SDS011;44185;47.844;8.966;2023-08-07T11:54:01;2.35;;;0.95;;
58384;SDS011;44185;47.844;8.966;2023-08-07T11:56:28;4.30;;;1.50;;
58384;SDS011;44185;47.844;8.966;2023-08-07T11:58:54;1.83;;;1.30;;
58384;SDS011;44185;47.844;8.966;2023-08-07T12:01:20;1.73;;;1.35;;
58384;SDS011;44185;47.844;8.966;2023-08-07T12:03:51;1.42;;;1.17;;
58384;SDS011;44185;47.844;8.966;2023-08-07T12:06:17;2.15;;;1.33;;
58384;SDS011;44185;47.844;8.966;2023-08-07T12:08:44;1.35;;;1.10;;
58384;SDS011;44185;47.844;8.966;2023-08-07T12:11:10;2.15;;;1.38;;
58384;SDS011;44185;47.844;8.966;2023-08-07T12:13:37;2.30;;;1.27;;
58384;SDS011;44185;47.844;8.966;2023-08-07T12:16:04;2.58;;;1.52;;
58384;SDS011;44185;47.844;8.966;2023-08-07T12:18:30;3.72;;;1.50;;
58384;SDS011;44185;47.844;8.966;2023-08-07T12:20:57;2.88;;;1.60;;
58384;SDS011;44185;47.844;8.966;2023-08-07T12:23:24;1.90;;;1.23;;
58384;SDS011;44185;47.844;8.966;2023-08-07T12:25:51;1.13;;;0.90;;
58384;SDS011;44185;47.844;8.966;2023-08-07T12:28:17;1.70;;;1.00;;
58384;SDS011;44185;47.844;8.966;2023-08-07T12:30:44;2.33;;;1.45;;
58384;SDS011;44185;47.844;8.966;2023-08-07T12:33:10;1.02;;;0.70;;
58384;SDS011;44185;47.844;8.966;2023-08-07T12:35:35;1.17;;;0.90;;
58384;SDS011;44185;47.844;8.966;2023-08-07T12:38:01;1.80;;;0.95;;
58384;SDS011;44185;47.844;8.966;2023-08-07T12:40:26;0.70;;;0.70;;
58384;SDS011;44185;47.844;8.966;2023-08-07T12:42:53;3.78;;;1.35;;
58384;SDS011;44185;47.844;8.966;2023-08-07T12:45:19;1.67;;;1.10;;
58384;SDS011;44185;47.844;8.966;2023-08-07T12:47:44;3.28;;;1.58;;
58384;SDS011;44185;47.844;8.966;2023-08-07T12:50:10;2.15;;;0.90;;
58384;SDS011;44185;47.844;8.966;2023-08-07T12:52:35;1.77;;;1.17;;
58384;SDS011;44185;47.844;8.966;2023-08-07T12:55:01;3.28;;;1.30;;
58384;SDS011;44185;47.844;8.966;2023-08-07T12:57:26;3.25;;;1.30;;
58384;SDS011;44185;47.844;8.966;2023-08-07T12:59:53;2.55;;;1.40;;
58384;SDS011;44185;47.844;8.966;2023-08-07T13:02:18;1.63;;;1.30;;
58384;SDS011;44185;47.844;8.966;2023-08-07T13:04:44;3.17;;;1.13;;
58384;SDS011;44185;47.844;8.966;2023-08-07T13:07:09;2.15;;;1.17;;
58384;SDS011;44185;47.844;8.966;2023-08-07T13:09:35;1.85;;;1.10;;
58384;SDS011;44185;47.844;8.966;2023-08-07T13:12:00;2.03;;;1.20;;
58384;SDS011;44185;47.844;8.966;2023-08-07T13:14:26;0.93;;;0.93;;
58384;SDS011;44185;47.844;8.966;2023-08-07T13:16:52;3.15;;;1.20;;
58384;SDS011;44185;47.844;8.966;2023-08-07T13:19:18;1.15;;;1.05;;
58384;SDS011;44185;47.844;8.966;2023-08-07T13:21:43;2.05;;;1.10;;
58384;SDS011;44185;47.844;8.966;2023-08-07T13:24:09;1.52;;;0.98;;
58384;SDS011;44185;47.844;8.966;2023-08-07T13:26:34;0.98;;;0.93;;
58384;SDS011;44185;47.844;8.966;2023-08-07T13:29:00;1.25;;;1.08;;
58384;SDS011;44185;47.844;8.966;2023-08-07T13:31:25;1.50;;;0.80;;
58384;SDS011;44185;47.844;8.966;2023-08-07T13:33:52;1.73;;;1.20;;
58384;SDS011;44185;47.844;8.966;2023-08-07T13:36:17;1.20;;;1.10;;
58384;SDS011;44185;47.844;8.966;2023-08-07T13:38:43;1.13;;;1.00;;
58384;SDS011;44185;47.844;8.966;2023-08-07T13:41:08;1.63;;;1.08;;
58384;SDS011;44185;47.844;8.966;2023-08-07T13:43:34;1.30;;;1.13;;
58384;SDS011;44185;47.844;8.966;2023-08-07T13:45:59;1.55;;;1.30;;
58384;SDS011;44185;47.844;8.966;2023-08-07T13:48:25;2.13;;;1.40;;
58384;SDS011;44185;47.844;8.966;2023-08-07T13:50:51;0.88;;;0.88;;
58384;SDS011;44185;47.844;8.966;2023-08-07T13:53:17;1.52;;;0.88;;
58384;SDS011;44185;47.844;8.966;2023-08-07T13:55:43;1.92;;;1.15;;
58384;SDS011;44185;47.844;8.966;2023-08-07T13:58:08;0.80;;;0.80;;
58384;SDS011;44185;47.844;8.966;2023-08-07T14:00:34;0.98;;;0.88;;
58384;SDS011;44185;47.844;8.966;2023-08-07T14:02:59;2.42;;;0.80;;
58384;SDS011;44185;47.844;8.966;2023-08-07T14:05:25;1.00;;;1.00;;
58384;SDS011;44185;47.844;8.966;2023-08-07T14:07:52;1.25;;;0.95;;
58384;SDS011;44185;47.844;8.966;2023-08-07T14:10:17;1.00;;;0.90;;
58384;SDS011;44185;47.844;8.966;2023-08-07T14:12:43;3.00;;;1.27;;
58384;SDS011;44185;47.844;8.966;2023-08-07T14:15:08;1.08;;;0.82;;
58384;SDS011;44185;47.844;8.966;2023-08-07T14:17:34;1.25;;;1.15;;
58384;SDS011;44185;47.844;8.966;2023-08-07T14:20:00;1.67;;;0.82;;
58384;SDS011;44185;47.844;8.966;2023-08-07T14:22:25;2.10;;;1.27;;
58384;SDS011;44185;47.844;8.966;2023-08-07T14:24:52;0.77;;;0.73;;
58384;SDS011;44185;47.844;8.966;2023-08-07T14:27:17;0.98;;;0.88;;
58384;SDS011;44185;47.844;8.966;2023-08-07T14:29:43;1.08;;;1.00;;
58384;SDS011;44185;47.844;8.966;2023-08-07T14:32:08;2.38;;;1.17;;
58384;SDS011;44185;47.844;8.966;2023-08-07T14:34:34;1.15;;;1.08;;
58384;SDS011;44185;47.844;8.966;2023-08-07T14:36:59;1.70;;;1.30;;
58384;SDS011;44185;47.844;8.966;2023-08-07T14:39:24;0.88;;;0.88;;
58384;SDS011;44185;47.844;8.966;2023-08-07T14:41:51;2.60;;;1.27;;